createdAt,value
2017-12-21T00:00:25.868Z,21.10
2017-12-21T00:02:54.220Z,21.10
2017-12-21T00:05:23.160Z,21.10
2017-12-21T00:07:51.599Z,21.10
2017-12-21T00:10:20.458Z,21.10
2017-12-21T00:12:49.641Z,21.20
2017-12-21T00:15:19.098Z,21.20
2017-12-21T00:17:48.803Z,21.20
2017-12-21T00:20:18.255Z,21.20
2017-12-21T00:22:47.186Z,21.20
2017-12-21T00:25:16.305Z,21.20
2017-12-21T00:27:45.277Z,21.20
2017-12-21T00:30:15.037Z,21.20
2017-12-21T00:32:43.907Z,21.20
2017-12-21T00:35:12.276Z,21.20
2017-12-21T00:37:40.524Z,21.20
2017-12-21T00:40:09.249Z,21.20
2017-12-21T00:42:38.440Z,21.30
2017-12-21T00:45:06.977Z,21.30
2017-12-21T00:47:35.998Z,21.30
2017-12-21T00:50:04.496Z,21.30
2017-12-21T00:52:33.308Z,21.30
2017-12-21T00:55:03.669Z,21.30
2017-12-21T00:57:31.977Z,21.30
2017-12-21T01:00:00.637Z,21.30
2017-12-21T01:02:29.705Z,21.30
2017-12-21T01:04:58.000Z,21.30
2017-12-21T01:07:29.200Z,21.30
2017-12-21T01:09:57.818Z,21.30
2017-12-21T01:12:26.224Z,21.30
2017-12-21T01:14:55.146Z,21.40
2017-12-21T01:17:23.245Z,21.30
2017-12-21T01:19:51.764Z,21.30
2017-12-21T01:22:21.209Z,21.30
2017-12-21T01:24:50.549Z,21.40
2017-12-21T01:27:19.753Z,21.40
2017-12-21T01:29:48.540Z,21.40
2017-12-21T01:32:16.919Z,21.30
2017-12-21T01:34:45.287Z,21.40
2017-12-21T01:37:14.294Z,21.40
2017-12-21T01:39:42.660Z,21.40
2017-12-21T01:42:12.099Z,21.40
2017-12-21T01:44:40.340Z,21.40
2017-12-21T01:47:09.049Z,21.40
2017-12-21T01:49:37.968Z,21.40
2017-12-21T01:52:07.582Z,21.40
2017-12-21T01:54:37.387Z,21.40
2017-12-21T01:57:06.519Z,21.40
2017-12-21T01:59:35.757Z,21.40
2017-12-21T02:02:04.500Z,21.40
2017-12-21T02:04:33.111Z,21.40
2017-12-21T02:07:02.074Z,21.40
2017-12-21T02:09:31.498Z,21.40
2017-12-21T02:12:00.157Z,21.40
2017-12-21T02:14:29.118Z,21.50
2017-12-21T02:16:58.828Z,21.40
2017-12-21T02:19:27.761Z,21.40
2017-12-21T02:21:58.009Z,21.40
2017-12-21T02:24:26.612Z,21.50
2017-12-21T02:26:55.446Z,21.50
2017-12-21T02:29:24.087Z,21.50
2017-12-21T02:31:53.223Z,21.50
2017-12-21T02:34:22.307Z,21.50
2017-12-21T02:36:50.877Z,21.50
2017-12-21T02:39:20.729Z,21.50
2017-12-21T02:41:50.159Z,21.50
2017-12-21T02:44:19.497Z,21.50
2017-12-21T02:46:48.817Z,21.50
2017-12-21T02:49:17.159Z,21.50
2017-12-21T02:51:45.890Z,21.50
2017-12-21T02:54:15.147Z,21.50
2017-12-21T02:56:43.756Z,21.50
2017-12-21T02:59:12.460Z,21.50
2017-12-21T03:01:41.837Z,21.50
2017-12-21T03:04:10.110Z,21.50
2017-12-21T03:06:40.447Z,21.60
2017-12-21T03:09:09.005Z,21.60
2017-12-21T03:11:38.354Z,21.60
2017-12-21T03:14:07.316Z,21.50
2017-12-21T03:16:36.110Z,21.60
2017-12-21T03:19:05.349Z,21.60
2017-12-21T03:21:34.151Z,21.60
2017-12-21T03:24:02.877Z,21.60
2017-12-21T03:26:31.363Z,21.60
2017-12-21T03:28:59.917Z,21.60
2017-12-21T03:31:28.086Z,21.60
2017-12-21T03:33:56.773Z,21.60
2017-12-21T03:36:26.428Z,21.60
2017-12-21T03:38:54.990Z,21.60
2017-12-21T03:41:23.242Z,21.60
2017-12-21T03:43:52.956Z,21.60
2017-12-21T03:46:21.365Z,21.60
2017-12-21T03:48:50.548Z,21.60
2017-12-21T03:51:19.324Z,21.60
2017-12-21T03:53:47.601Z,21.60
2017-12-21T03:56:16.037Z,21.60
2017-12-21T03:58:45.135Z,21.60
2017-12-21T04:01:14.450Z,21.60
2017-12-21T04:03:42.722Z,21.60
2017-12-21T04:06:11.510Z,21.60
2017-12-21T04:08:40.505Z,21.60
2017-12-21T04:11:09.995Z,21.60
2017-12-21T04:13:38.550Z,21.60
2017-12-21T04:16:07.268Z,21.60
2017-12-21T04:18:36.876Z,21.60
2017-12-21T04:21:05.576Z,21.60
2017-12-21T04:23:34.078Z,21.60
2017-12-21T04:26:04.080Z,21.60
2017-12-21T04:28:33.339Z,21.60
2017-12-21T04:31:01.766Z,21.60
2017-12-21T04:33:29.909Z,21.60
2017-12-21T04:35:58.538Z,21.60
2017-12-21T04:38:26.868Z,21.70
2017-12-21T04:40:56.038Z,21.60
2017-12-21T04:43:24.607Z,21.70
2017-12-21T04:45:54.859Z,21.60
2017-12-21T04:48:23.120Z,21.60
2017-12-21T04:50:51.813Z,21.60
2017-12-21T04:53:20.818Z,21.60
2017-12-21T04:55:50.086Z,21.70
2017-12-21T04:58:20.146Z,21.70
2017-12-21T05:00:48.451Z,21.60
2017-12-21T05:03:17.129Z,21.60
2017-12-21T05:05:46.520Z,21.60
2017-12-21T05:08:16.380Z,21.60
2017-12-21T05:10:46.538Z,21.60
2017-12-21T05:13:15.595Z,21.60
2017-12-21T05:15:44.323Z,21.60
2017-12-21T05:18:12.667Z,21.60
2017-12-21T05:20:41.279Z,21.60
2017-12-21T05:23:11.278Z,21.60
2017-12-21T05:25:39.548Z,21.60
2017-12-21T05:28:09.129Z,21.70
2017-12-21T05:30:37.987Z,21.70
2017-12-21T05:33:06.268Z,21.70
2017-12-21T05:35:35.675Z,21.70
2017-12-21T05:38:04.129Z,21.70
2017-12-21T05:40:32.366Z,21.70
2017-12-21T05:43:02.917Z,21.80
2017-12-21T05:45:31.843Z,21.80
2017-12-21T05:48:00.939Z,21.80
2017-12-21T05:50:29.689Z,21.80
2017-12-21T05:52:58.218Z,21.80
2017-12-21T05:55:28.653Z,21.80
2017-12-21T05:57:57.667Z,21.80
2017-12-21T06:00:27.516Z,21.80
2017-12-21T06:02:55.989Z,21.70
2017-12-21T06:05:24.879Z,21.70
2017-12-21T06:07:53.190Z,21.70
2017-12-21T06:10:22.379Z,21.70
2017-12-21T06:12:51.602Z,21.70
2017-12-21T06:15:20.969Z,21.70
2017-12-21T06:17:51.076Z,21.70
2017-12-21T06:20:21.020Z,21.80
2017-12-21T06:22:49.309Z,21.80
2017-12-21T06:25:17.637Z,21.70
2017-12-21T06:27:45.977Z,21.70
2017-12-21T06:30:14.707Z,21.70
2017-12-21T06:32:43.589Z,21.70
2017-12-21T06:35:12.729Z,21.70
2017-12-21T06:37:41.073Z,21.70
2017-12-21T06:40:09.601Z,21.60
2017-12-21T06:42:39.041Z,21.60
2017-12-21T06:45:08.592Z,21.60
2017-12-21T06:47:37.369Z,21.60
2017-12-21T06:50:05.920Z,21.60
2017-12-21T06:52:34.632Z,21.60
2017-12-21T06:55:04.349Z,21.60
2017-12-21T06:57:33.282Z,21.60
2017-12-21T07:00:02.233Z,21.60
2017-12-21T07:02:31.659Z,21.50
2017-12-21T07:04:59.990Z,21.50
2017-12-21T07:07:28.597Z,21.60
2017-12-21T07:09:57.738Z,21.50
2017-12-21T07:12:26.838Z,21.50
2017-12-21T07:14:55.679Z,21.60
2017-12-21T07:17:24.274Z,21.60
2017-12-21T07:19:54.559Z,21.60
2017-12-21T07:22:23.699Z,21.60
2017-12-21T07:24:52.400Z,21.60
2017-12-21T07:27:21.306Z,21.60
2017-12-21T07:29:49.764Z,21.60
2017-12-21T07:32:19.312Z,21.60
2017-12-21T07:34:48.990Z,21.60
2017-12-21T07:37:19.390Z,21.60
2017-12-21T07:39:47.813Z,21.70
2017-12-21T07:42:16.500Z,21.70
2017-12-21T07:44:45.073Z,21.70
2017-12-21T07:47:13.320Z,21.80
2017-12-21T07:49:42.430Z,21.80
2017-12-21T07:52:11.040Z,21.80
2017-12-21T07:54:41.070Z,21.80
2017-12-21T07:57:09.420Z,21.80
2017-12-21T07:59:37.934Z,21.80
2017-12-21T08:02:08.261Z,21.80
2017-12-21T08:04:37.189Z,21.90
2017-12-21T08:07:06.560Z,21.80
2017-12-21T08:09:34.854Z,21.90
2017-12-21T08:12:03.870Z,21.90
2017-12-21T08:14:32.961Z,21.90
2017-12-21T08:17:01.390Z,21.90
2017-12-21T08:19:29.704Z,21.90
2017-12-21T08:21:58.418Z,22.00
2017-12-21T08:24:26.687Z,21.90
2017-12-21T08:26:55.790Z,22.00
2017-12-21T08:29:25.121Z,22.00
2017-12-21T08:31:53.581Z,21.90
2017-12-21T08:34:23.096Z,22.00
2017-12-21T08:36:51.464Z,22.00
2017-12-21T08:39:20.317Z,22.00
2017-12-21T08:41:49.417Z,22.00
2017-12-21T08:44:18.351Z,22.00
2017-12-21T08:46:46.867Z,22.00
2017-12-21T08:49:15.688Z,22.00
2017-12-21T08:51:44.308Z,22.00
2017-12-21T08:54:13.198Z,22.00
2017-12-21T08:56:41.585Z,22.00
2017-12-21T08:59:10.010Z,22.00
2017-12-21T09:01:39.470Z,22.00
2017-12-21T09:04:08.692Z,22.00
2017-12-21T09:06:37.946Z,22.00
2017-12-21T09:09:06.963Z,22.00
2017-12-21T09:11:36.250Z,22.00
2017-12-21T09:14:05.526Z,22.10
2017-12-21T09:16:34.695Z,22.10
2017-12-21T09:19:04.494Z,22.10
2017-12-21T09:21:33.762Z,22.10
2017-12-21T09:24:03.561Z,22.10
2017-12-21T09:26:33.563Z,22.10
2017-12-21T09:29:02.628Z,22.10
2017-12-21T09:31:32.199Z,22.10
2017-12-21T09:34:02.560Z,22.10
2017-12-21T09:36:31.106Z,22.10
2017-12-21T09:38:59.600Z,22.20
2017-12-21T09:41:28.175Z,22.30
2017-12-21T09:43:57.379Z,22.30
2017-12-21T09:46:26.818Z,22.40
2017-12-21T09:48:56.017Z,22.50
2017-12-21T09:51:25.766Z,22.50
2017-12-21T09:53:54.700Z,22.50
2017-12-21T09:56:24.309Z,22.60
2017-12-21T09:58:54.137Z,22.70
2017-12-21T10:01:23.823Z,22.80
2017-12-21T10:03:53.049Z,22.90
2017-12-21T15:05:34.196Z,4.00
2017-12-21T15:08:03.079Z,4.00
2017-12-21T15:10:31.960Z,4.00
2017-12-21T15:13:01.337Z,4.00
2017-12-21T15:15:31.329Z,3.90
2017-12-21T15:18:00.470Z,3.90
2017-12-21T15:20:28.750Z,3.90
2017-12-21T15:22:57.429Z,3.90
2017-12-21T15:25:27.309Z,3.70
2017-12-21T15:27:56.430Z,3.70
2017-12-21T15:30:25.690Z,3.70
2017-12-21T15:32:54.268Z,3.70
2017-12-21T15:35:23.688Z,3.60
2017-12-21T15:37:52.615Z,3.70
2017-12-21T15:40:22.500Z,3.70
2017-12-21T15:42:51.610Z,3.70
2017-12-21T15:45:20.286Z,3.70
2017-12-21T15:47:49.668Z,3.70
2017-12-21T15:50:18.089Z,3.70
2017-12-21T15:52:47.485Z,3.80
2017-12-21T15:55:16.383Z,3.70
2017-12-21T15:57:44.899Z,3.70
2017-12-21T16:00:13.458Z,3.60
2017-12-21T16:02:41.896Z,3.60
2017-12-21T16:05:11.024Z,3.60
2017-12-21T16:07:39.382Z,3.60
2017-12-21T16:10:08.183Z,3.70
2017-12-21T16:12:37.590Z,3.60
2017-12-21T16:15:07.664Z,3.60
2017-12-21T16:17:36.661Z,3.60
2017-12-21T16:20:05.332Z,3.70
2017-12-21T16:22:33.988Z,3.70
2017-12-21T16:25:02.274Z,3.70
2017-12-21T16:27:30.909Z,3.60
2017-12-21T16:29:59.897Z,3.50
2017-12-21T16:32:29.809Z,3.50
2017-12-21T16:34:58.394Z,3.40
2017-12-21T16:37:28.006Z,3.40
2017-12-21T16:39:57.024Z,3.30
2017-12-21T16:42:26.788Z,3.30
2017-12-21T16:44:55.931Z,3.30
2017-12-21T16:47:25.369Z,3.30
2017-12-21T16:49:54.264Z,3.30
2017-12-21T16:52:23.568Z,3.30
2017-12-21T16:54:52.420Z,3.30
2017-12-21T16:57:20.695Z,3.20
2017-12-21T16:59:49.342Z,3.20
2017-12-21T17:02:18.029Z,3.20
2017-12-21T17:04:46.616Z,3.30
2017-12-21T17:07:15.093Z,3.40
2017-12-21T17:09:43.445Z,3.40
2017-12-21T17:12:12.103Z,3.40
2017-12-21T17:14:41.375Z,3.40
2017-12-21T17:17:10.085Z,3.40
2017-12-21T17:19:39.100Z,3.50
2017-12-21T17:22:08.409Z,3.50
2017-12-21T17:24:37.274Z,3.40
2017-12-21T17:27:05.470Z,3.50
2017-12-21T17:29:34.733Z,3.50
2017-12-21T17:32:03.771Z,3.50
2017-12-21T17:34:32.671Z,3.70
2017-12-21T17:37:01.416Z,3.50
2017-12-21T17:39:30.179Z,3.50
2017-12-21T17:41:58.782Z,3.60
2017-12-21T17:44:28.331Z,3.60
2017-12-21T17:46:58.201Z,3.60
2017-12-21T17:49:26.618Z,3.60
2017-12-21T17:51:56.598Z,3.60
2017-12-21T17:54:26.511Z,3.60
2017-12-21T17:56:55.971Z,3.60
2017-12-21T17:59:24.799Z,3.60
2017-12-21T18:01:53.806Z,3.60
2017-12-21T18:04:22.067Z,3.50
2017-12-21T18:06:51.455Z,3.50
2017-12-21T18:09:20.767Z,3.60
2017-12-21T18:11:49.714Z,3.60
2017-12-21T18:14:18.557Z,3.60
2017-12-21T18:16:47.359Z,3.50
2017-12-21T18:19:16.057Z,3.60
2017-12-21T18:21:44.804Z,3.60
2017-12-21T18:24:13.650Z,3.70
2017-12-21T18:26:43.128Z,3.60
2017-12-21T18:29:11.681Z,3.60
2017-12-21T18:31:41.338Z,3.60
2017-12-21T18:34:10.633Z,3.70
2017-12-21T18:36:39.484Z,3.70
2017-12-21T18:39:08.095Z,3.70
2017-12-21T18:41:36.814Z,3.70
2017-12-21T18:44:05.710Z,3.70
2017-12-21T18:46:34.409Z,3.60
2017-12-21T18:49:04.259Z,3.50
2017-12-21T18:51:32.944Z,3.50
2017-12-21T18:54:02.901Z,3.60
2017-12-21T18:56:31.554Z,3.60
2017-12-21T18:59:01.395Z,3.70
2017-12-21T19:01:31.320Z,3.80
2017-12-21T19:03:59.750Z,3.80
2017-12-21T19:06:29.015Z,3.70
2017-12-21T19:08:58.132Z,3.80
2017-12-21T19:11:26.926Z,3.70
2017-12-21T19:13:56.383Z,3.70
2017-12-21T19:16:25.303Z,3.70
2017-12-21T19:18:53.688Z,3.70
2017-12-21T19:21:22.130Z,3.70
2017-12-21T19:23:51.890Z,3.80
2017-12-21T19:26:20.060Z,3.80
2017-12-21T19:28:48.953Z,3.70
2017-12-21T19:31:17.198Z,3.80
2017-12-21T19:33:45.471Z,3.70
2017-12-21T19:36:14.513Z,3.70
2017-12-21T19:38:44.442Z,3.80
2017-12-21T19:41:13.810Z,3.80
2017-12-21T19:43:43.105Z,3.90
2017-12-21T19:46:11.407Z,3.80
2017-12-21T19:48:40.280Z,3.70
2017-12-21T19:51:09.502Z,3.70
2017-12-21T19:53:37.824Z,3.80
2017-12-21T19:56:06.049Z,3.90
2017-12-21T19:58:35.178Z,3.90
2017-12-21T20:01:04.975Z,3.90
2017-12-21T20:03:34.030Z,3.90
2017-12-21T20:06:03.454Z,3.90
2017-12-21T20:08:31.889Z,3.90
2017-12-21T20:11:00.295Z,3.90
2017-12-21T20:13:28.598Z,3.90
2017-12-21T20:15:56.821Z,3.90
2017-12-21T20:18:25.542Z,3.90
2017-12-21T20:20:55.428Z,3.70
2017-12-21T20:23:24.373Z,3.70
2017-12-21T20:25:53.105Z,3.80
2017-12-21T20:28:22.770Z,3.90
2017-12-21T20:30:51.125Z,3.80
2017-12-21T20:33:20.215Z,3.90
2017-12-21T20:35:48.400Z,3.90
2017-12-21T20:38:18.093Z,3.80
2017-12-21T20:40:46.632Z,3.70
2017-12-21T20:43:15.097Z,3.70
2017-12-21T20:45:44.754Z,3.70
2017-12-21T20:48:13.680Z,3.70
2017-12-21T20:50:42.969Z,3.80
2017-12-21T20:53:12.919Z,3.70
2017-12-21T20:55:41.979Z,3.70
2017-12-21T20:58:10.639Z,3.70
2017-12-21T21:00:39.659Z,3.70
2017-12-21T21:03:08.377Z,3.70
2017-12-21T21:05:37.571Z,3.80
2017-12-21T21:08:06.663Z,3.80
2017-12-21T21:10:35.515Z,3.80
2017-12-21T21:13:04.566Z,3.80
2017-12-21T21:15:33.689Z,3.70
2017-12-21T21:18:01.888Z,3.80
2017-12-21T21:20:30.642Z,3.80
2017-12-21T21:23:00.094Z,3.80
2017-12-21T21:25:28.624Z,3.80
2017-12-21T21:27:57.678Z,3.80
2017-12-21T21:30:26.365Z,3.90
2017-12-21T21:32:54.664Z,3.80
2017-12-21T21:35:23.828Z,3.70
2017-12-21T21:37:52.012Z,3.70
2017-12-21T21:40:20.764Z,3.70
2017-12-21T21:42:49.035Z,3.80
2017-12-21T21:45:17.445Z,3.70
2017-12-21T21:47:46.737Z,3.70
2017-12-21T21:50:15.572Z,3.70
2017-12-21T21:52:44.145Z,3.60
2017-12-21T21:55:12.871Z,3.60
2017-12-21T21:57:41.742Z,3.70
2017-12-21T22:00:10.723Z,3.70
2017-12-21T22:02:39.842Z,3.60
2017-12-21T22:05:10.317Z,3.60
2017-12-21T22:07:39.348Z,3.60
2017-12-21T22:10:07.614Z,3.60
2017-12-21T22:12:37.610Z,3.70
2017-12-21T22:15:06.536Z,3.70
2017-12-21T22:17:35.800Z,3.70
2017-12-21T22:20:05.643Z,3.60
2017-12-21T22:22:34.430Z,3.60
2017-12-21T22:25:04.030Z,3.60
2017-12-21T22:27:32.786Z,3.60
2017-12-21T22:30:03.330Z,3.60
2017-12-21T22:32:31.882Z,3.70
2017-12-21T22:35:00.531Z,3.70
2017-12-21T22:37:29.169Z,3.70
2017-12-21T22:39:57.389Z,3.70
2017-12-21T22:42:26.737Z,3.70
2017-12-21T22:44:54.982Z,3.70
2017-12-21T22:47:23.788Z,3.70
2017-12-21T22:49:52.718Z,3.60
2017-12-21T22:52:22.107Z,3.70
2017-12-21T22:54:51.908Z,3.60
2017-12-21T22:57:21.023Z,3.70
2017-12-21T22:59:49.275Z,3.70
2017-12-21T23:02:18.240Z,3.60
2017-12-21T23:04:46.507Z,3.60
2017-12-21T23:07:14.773Z,3.80
2017-12-21T23:09:43.209Z,3.80
2017-12-21T23:12:11.761Z,3.70
2017-12-21T23:14:41.071Z,3.60
2017-12-21T23:17:10.722Z,3.60
2017-12-21T23:19:39.107Z,3.60
2017-12-21T23:22:08.462Z,3.70
2017-12-21T23:24:37.382Z,3.80
2017-12-21T23:27:05.880Z,3.80
2017-12-21T23:29:34.238Z,3.70
2017-12-21T23:32:02.771Z,3.80
2017-12-21T23:34:30.928Z,3.70
2017-12-21T23:37:00.136Z,3.80
2017-12-21T23:39:29.885Z,3.80
2017-12-21T23:41:58.850Z,3.80
2017-12-21T23:44:27.231Z,3.90
2017-12-21T23:46:55.563Z,3.80
2017-12-21T23:49:24.180Z,3.90
2017-12-21T23:51:53.550Z,3.80
2017-12-21T23:54:22.302Z,3.80
2017-12-21T23:56:50.553Z,3.80
2017-12-21T23:59:19.806Z,3.80
